sensor_id;sensor_type;location;lat;lon;timestamp;temperature;humidity
55016;DHT22;40919;43.236;21.590;2022-10-15T00:01:36;256.60;2252.80
55016;DHT22;40919;43.236;21.590;2022-10-15T00:08:55;281.80;2278.40
55016;DHT22;40919;43.236;21.590;2022-10-15T00:11:23;256.70;2252.80
55016;DHT22;40919;43.236;21.590;2022-10-15T00:13:52;256.90;2252.80
55016;DHT22;40919;43.236;21.590;2022-10-15T00:16:21;256.90;2252.80
55016;DHT22;40919;43.236;21.590;2022-10-15T00:18:48;256.90;2252.80
55016;DHT22;40919;43.236;21.590;2022-10-15T00:21:15;256.90;2252.80
55016;DHT22;40919;43.236;21.590;2022-10-15T00:23:43;256.90;2252.80
55016;DHT22;40919;43.236;21.590;2022-10-15T00:26:17;256.90;2252.80
55016;DHT22;40919;43.236;21.590;2022-10-15T00:28:44;256.50;2252.80
55016;DHT22;40919;43.236;21.590;2022-10-15T00:31:13;256.50;2252.80
55016;DHT22;40919;43.236;21.590;2022-10-15T00:46:02;231.20;2252.80
55016;DHT22;40919;43.236;21.590;2022-10-15T00:48:29;231.10;2252.80
55016;DHT22;40919;43.236;21.590;2022-10-15T00:50:55;231.10;2252.80
55016;DHT22;40919;43.236;21.590;2022-10-15T00:53:22;231.10;2252.80
55016;DHT22;40919;43.236;21.590;2022-10-15T00:55:47;231.20;2252.80
55016;DHT22;40919;43.236;21.590;2022-10-15T00:58:18;231.10;2252.80
55016;DHT22;40919;43.236;21.590;2022-10-15T01:00:47;230.90;2252.80
55016;DHT22;40919;43.236;21.590;2022-10-15T01:44:39;231.20;2252.80
55016;DHT22;40919;43.236;21.590;2022-10-15T01:47:13;231.00;2252.80
55016;DHT22;40919;43.236;21.590;2022-10-15T01:49:43;231.00;2252.80
55016;DHT22;40919;43.236;21.590;2022-10-15T02:37:46;230.70;2252.80
55016;DHT22;40919;43.236;21.590;2022-10-15T02:40:13;230.50;2252.80
55016;DHT22;40919;43.236;21.590;2022-10-15T03:36:13;230.40;2252.80
55016;DHT22;40919;43.236;21.590;2022-10-15T03:38:39;205.60;2252.80
55016;DHT22;40919;43.236;21.590;2022-10-15T03:41:05;205.70;2252.80
55016;DHT22;40919;43.236;21.590;2022-10-15T03:43:31;205.60;2252.80
55016;DHT22;40919;43.236;21.590;2022-10-15T03:46:00;205.70;2252.80
55016;DHT22;40919;43.236;21.590;2022-10-15T03:48:27;205.70;2252.80
55016;DHT22;40919;43.236;21.590;2022-10-15T03:50:52;230.40;2252.80
55016;DHT22;40919;43.236;21.590;2022-10-15T03:53:18;205.70;2252.80
55016;DHT22;40919;43.236;21.590;2022-10-15T03:55:44;205.70;2252.80
55016;DHT22;40919;43.236;21.590;2022-10-15T03:58:09;205.70;2252.80
55016;DHT22;40919;43.236;21.590;2022-10-15T04:00:35;205.70;2252.80
55016;DHT22;40919;43.236;21.590;2022-10-15T04:03:01;205.70;2252.80
55016;DHT22;40919;43.236;21.590;2022-10-15T04:05:27;205.70;2252.80
55016;DHT22;40919;43.236;21.590;2022-10-15T04:07:53;205.70;2252.80
55016;DHT22;40919;43.236;21.590;2022-10-15T04:10:19;205.40;2252.80
55016;DHT22;40919;43.236;21.590;2022-10-15T04:12:45;205.50;2252.80
55016;DHT22;40919;43.236;21.590;2022-10-15T04:15:11;205.60;2252.80
55016;DHT22;40919;43.236;21.590;2022-10-15T04:17:37;205.50;2252.80
55016;DHT22;40919;43.236;21.590;2022-10-15T04:20:03;205.50;2252.80
55016;DHT22;40919;43.236;21.590;2022-10-15T04:22:29;205.50;2252.80
55016;DHT22;40919;43.236;21.590;2022-10-15T04:34:40;230.50;2252.80
55016;DHT22;40919;43.236;21.590;2022-10-15T04:37:05;205.70;2252.80
55016;DHT22;40919;43.236;21.590;2022-10-15T04:39:31;205.60;2252.80
55016;DHT22;40919;43.236;21.590;2022-10-15T04:41:57;205.60;2252.80
55016;DHT22;40919;43.236;21.590;2022-10-15T04:44:23;205.60;2252.80
55016;DHT22;40919;43.236;21.590;2022-10-15T04:46:48;205.50;2252.80
55016;DHT22;40919;43.236;21.590;2022-10-15T04:49:14;205.40;2252.80
55016;DHT22;40919;43.236;21.590;2022-10-15T04:51:40;205.50;2252.80
55016;DHT22;40919;43.236;21.590;2022-10-15T04:54:06;205.50;2252.80
55016;DHT22;40919;43.236;21.590;2022-10-15T06:37:09;230.40;2252.80
55016;DHT22;40919;43.236;21.590;2022-10-15T06:39:35;205.70;2252.80
55016;DHT22;40919;43.236;21.590;2022-10-15T06:42:01;205.70;2252.80
55016;DHT22;40919;43.236;21.590;2022-10-15T06:44:27;205.70;2252.80
55016;DHT22;40919;43.236;21.590;2022-10-15T06:46:53;205.70;2252.80
55016;DHT22;40919;43.236;21.590;2022-10-15T06:49:18;205.70;2252.80
55016;DHT22;40919;43.236;21.590;2022-10-15T06:51:44;205.70;2252.80
55016;DHT22;40919;43.236;21.590;2022-10-15T06:54:10;205.70;2252.80
55016;DHT22;40919;43.236;21.590;2022-10-15T06:56:36;205.70;2252.80
55016;DHT22;40919;43.236;21.590;2022-10-15T06:59:01;230.40;2252.80
55016;DHT22;40919;43.236;21.590;2022-10-15T07:01:27;230.50;2252.80
55016;DHT22;40919;43.236;21.590;2022-10-15T07:03:53;230.50;2252.80
55016;DHT22;40919;43.236;21.590;2022-10-15T07:06:19;230.50;2252.80
55016;DHT22;40919;43.236;21.590;2022-10-15T07:08:44;230.60;2252.80
55016;DHT22;40919;43.236;21.590;2022-10-15T07:11:10;230.50;2252.80
55016;DHT22;40919;43.236;21.590;2022-10-15T07:13:37;230.60;2252.80
55016;DHT22;40919;43.236;21.590;2022-10-15T07:16:12;230.70;2252.80
55016;DHT22;40919;43.236;21.590;2022-10-15T07:18:38;230.80;2252.80
55016;DHT22;40919;43.236;21.590;2022-10-15T07:21:05;256.00;2252.80
55016;DHT22;40919;43.236;21.590;2022-10-15T07:23:32;230.90;2252.80
55016;DHT22;40919;43.236;21.590;2022-10-15T07:25:59;230.90;2252.80
55016;DHT22;40919;43.236;21.590;2022-10-15T07:28:25;231.00;2252.80
55016;DHT22;40919;43.236;21.590;2022-10-15T07:30:52;231.00;2252.80
55016;DHT22;40919;43.236;21.590;2022-10-15T07:33:18;231.00;2252.80
55016;DHT22;40919;43.236;21.590;2022-10-15T07:35:43;231.20;2252.80
55016;DHT22;40919;43.236;21.590;2022-10-15T07:38:09;231.20;2252.80
55016;DHT22;40919;43.236;21.590;2022-10-15T07:40:35;231.20;2252.80
55016;DHT22;40919;43.236;21.590;2022-10-15T07:43:01;231.30;2252.80
55016;DHT22;40919;43.236;21.590;2022-10-15T07:45:27;256.00;2252.80
55016;DHT22;40919;43.236;21.590;2022-10-15T07:47:53;256.00;2252.80
55016;DHT22;40919;43.236;21.590;2022-10-15T07:50:19;256.10;2252.80
55016;DHT22;40919;43.236;21.590;2022-10-15T07:52:46;256.00;2252.80
55016;DHT22;40919;43.236;21.590;2022-10-15T07:55:12;256.10;2252.80
55016;DHT22;40919;43.236;21.590;2022-10-15T07:57:38;256.30;2252.80
55016;DHT22;40919;43.236;21.590;2022-10-15T08:00:05;256.30;2252.80
55016;DHT22;40919;43.236;21.590;2022-10-15T08:02:31;256.40;2252.80
55016;DHT22;40919;43.236;21.590;2022-10-15T08:04:57;256.60;2252.80
55016;DHT22;40919;43.236;21.590;2022-10-15T08:07:22;256.70;2252.80
55016;DHT22;40919;43.236;21.590;2022-10-15T08:09:48;256.90;2252.80
55016;DHT22;40919;43.236;21.590;2022-10-15T08:12:14;281.60;2278.40
55016;DHT22;40919;43.236;21.590;2022-10-15T08:14:40;281.70;2278.40
55016;DHT22;40919;43.236;21.590;2022-10-15T08:17:05;281.80;2278.40
55016;DHT22;40919;43.236;21.590;2022-10-15T08:19:32;281.90;2278.40
55016;DHT22;40919;43.236;21.590;2022-10-15T08:21:57;281.90;2278.40
55016;DHT22;40919;43.236;21.590;2022-10-15T08:24:24;282.20;2278.40
55016;DHT22;40919;43.236;21.590;2022-10-15T08:26:50;282.40;2278.40
55016;DHT22;40919;43.236;21.590;2022-10-15T08:29:15;307.20;2304.00
55016;DHT22;40919;43.236;21.590;2022-10-15T08:31:41;307.40;2304.00
55016;DHT22;40919;43.236;21.590;2022-10-15T08:34:07;307.50;2304.00
55016;DHT22;40919;43.236;21.590;2022-10-15T08:36:33;307.60;2304.00
55016;DHT22;40919;43.236;21.590;2022-10-15T08:38:59;307.80;2304.00
55016;DHT22;40919;43.236;21.590;2022-10-15T08:43:58;332.80;2329.60
55016;DHT22;40919;43.236;21.590;2022-10-15T08:46:36;332.90;2329.60
55016;DHT22;40919;43.236;21.590;2022-10-15T08:49:04;332.80;2329.60
55016;DHT22;40919;43.236;21.590;2022-10-15T08:54:00;333.00;2329.60
55016;DHT22;40919;43.236;21.590;2022-10-15T08:56:30;333.30;2329.60
55016;DHT22;40919;43.236;21.590;2022-10-15T08:59:22;333.40;2329.60
55016;DHT22;40919;43.236;21.590;2022-10-15T09:12:35;358.80;2329.60
55016;DHT22;40919;43.236;21.590;2022-10-15T09:15:04;358.80;2329.60
55016;DHT22;40919;43.236;21.590;2022-10-15T11:22:52;512.80;2380.80
55016;DHT22;40919;43.236;21.590;2022-10-15T11:25:51;512.90;2355.20
55016;DHT22;40919;43.236;21.590;2022-10-15T11:49:46;588.80;2124.80
55016;DHT22;40919;43.236;21.590;2022-10-15T11:57:34;589.20;2048.00
55016;DHT22;40919;43.236;21.590;2022-10-15T12:00:25;589.50;2073.60
55016;DHT22;40919;43.236;21.590;2022-10-15T12:02:58;589.50;2073.60
55016;DHT22;40919;43.236;21.590;2022-10-15T12:20:34;614.80;1971.20
55016;DHT22;40919;43.236;21.590;2022-10-15T12:23:01;614.70;1945.60
55016;DHT22;40919;43.236;21.590;2022-10-15T12:38:20;615.20;1945.60
55016;DHT22;40919;43.236;21.590;2022-10-15T12:41:04;615.10;1971.20
55016;DHT22;40919;43.236;21.590;2022-10-15T13:59:22;589.30;1920.00
55016;DHT22;40919;43.236;21.590;2022-10-15T14:01:57;588.90;1945.60
55016;DHT22;40919;43.236;21.590;2022-10-15T14:11:53;538.40;2073.60
55016;DHT22;40919;43.236;21.590;2022-10-15T15:10:07;487.30;2227.20
55016;DHT22;40919;43.236;21.590;2022-10-15T15:12:34;487.30;2252.80
55016;DHT22;40919;43.236;21.590;2022-10-15T15:15:00;487.00;2278.40
55016;DHT22;40919;43.236;21.590;2022-10-15T15:17:28;487.00;2329.60
55016;DHT22;40919;43.236;21.590;2022-10-15T15:19:56;486.80;2304.00
55016;DHT22;40919;43.236;21.590;2022-10-15T15:22:31;486.70;2329.60
55016;DHT22;40919;43.236;21.590;2022-10-15T15:24:59;486.60;2355.20
55016;DHT22;40919;43.236;21.590;2022-10-15T15:27:31;486.60;2380.80
55016;DHT22;40919;43.236;21.590;2022-10-15T15:30:03;486.40;2380.80
55016;DHT22;40919;43.236;21.590;2022-10-15T15:32:31;461.70;2380.80
55016;DHT22;40919;43.236;21.590;2022-10-15T15:34:57;461.50;2380.80
55016;DHT22;40919;43.236;21.590;2022-10-15T15:39:51;461.50;2380.80
55016;DHT22;40919;43.236;21.590;2022-10-15T15:42:22;461.40;2380.80
55016;DHT22;40919;43.236;21.590;2022-10-15T15:44:49;461.40;2380.80
55016;DHT22;40919;43.236;21.590;2022-10-15T15:57:04;460.90;2380.80
55016;DHT22;40919;43.236;21.590;2022-10-15T15:59:30;460.80;2380.80
55016;DHT22;40919;43.236;21.590;2022-10-15T16:01:56;436.00;2355.20
55016;DHT22;40919;43.236;21.590;2022-10-15T16:04:22;435.90;2355.20
55016;DHT22;40919;43.236;21.590;2022-10-15T16:06:48;435.70;2355.20
55016;DHT22;40919;43.236;21.590;2022-10-15T16:09:15;435.60;2355.20
55016;DHT22;40919;43.236;21.590;2022-10-15T16:11:41;435.50;2355.20
55016;DHT22;40919;43.236;21.590;2022-10-15T16:14:07;435.40;2355.20
55016;DHT22;40919;43.236;21.590;2022-10-15T16:19:00;435.30;2355.20
55016;DHT22;40919;43.236;21.590;2022-10-15T16:21:27;410.50;2355.20
55016;DHT22;40919;43.236;21.590;2022-10-15T16:23:53;410.40;2355.20
55016;DHT22;40919;43.236;21.590;2022-10-15T16:33:42;410.20;2355.20
55016;DHT22;40919;43.236;21.590;2022-10-15T16:36:08;410.10;2355.20
55016;DHT22;40919;43.236;21.590;2022-10-15T16:38:34;410.10;2355.20
55016;DHT22;40919;43.236;21.590;2022-10-15T16:40:59;410.20;2355.20
55016;DHT22;40919;43.236;21.590;2022-10-15T16:43:25;410.20;2355.20
55016;DHT22;40919;43.236;21.590;2022-10-15T16:45:55;410.20;2355.20
55016;DHT22;40919;43.236;21.590;2022-10-15T16:48:22;410.10;2355.20
55016;DHT22;40919;43.236;21.590;2022-10-15T16:51:00;410.20;2355.20
55016;DHT22;40919;43.236;21.590;2022-10-15T16:53:26;410.20;2355.20
55016;DHT22;40919;43.236;21.590;2022-10-15T16:55:52;410.20;2355.20
55016;DHT22;40919;43.236;21.590;2022-10-15T17:08:02;410.00;2355.20
55016;DHT22;40919;43.236;21.590;2022-10-15T17:10:28;409.90;2355.20
55016;DHT22;40919;43.236;21.590;2022-10-15T17:12:54;409.70;2355.20
55016;DHT22;40919;43.236;21.590;2022-10-15T17:15:20;384.90;2329.60
55016;DHT22;40919;43.236;21.590;2022-10-15T17:17:46;384.70;2329.60
55016;DHT22;40919;43.236;21.590;2022-10-15T17:20:11;384.80;2329.60
55016;DHT22;40919;43.236;21.590;2022-10-15T17:22:37;384.70;2329.60
55016;DHT22;40919;43.236;21.590;2022-10-15T17:27:29;384.80;2329.60
55016;DHT22;40919;43.236;21.590;2022-10-15T17:29:55;384.80;2329.60
55016;DHT22;40919;43.236;21.590;2022-10-15T17:32:21;384.70;2329.60
55016;DHT22;40919;43.236;21.590;2022-10-15T17:34:46;384.70;2329.60
55016;DHT22;40919;43.236;21.590;2022-10-15T17:37:12;384.70;2329.60
55016;DHT22;40919;43.236;21.590;2022-10-15T17:39:38;384.60;2329.60
55016;DHT22;40919;43.236;21.590;2022-10-15T17:42:04;384.50;2329.60
55016;DHT22;40919;43.236;21.590;2022-10-15T17:44:30;384.40;2329.60
55016;DHT22;40919;43.236;21.590;2022-10-15T17:46:56;384.40;2329.60
55016;DHT22;40919;43.236;21.590;2022-10-15T17:49:22;384.30;2329.60
55016;DHT22;40919;43.236;21.590;2022-10-15T17:51:48;384.30;2329.60
55016;DHT22;40919;43.236;21.590;2022-10-15T17:54:14;384.20;2329.60
55016;DHT22;40919;43.236;21.590;2022-10-15T17:56:40;384.30;2329.60
55016;DHT22;40919;43.236;21.590;2022-10-15T17:59:09;384.10;2329.60
55016;DHT22;40919;43.236;21.590;2022-10-15T18:01:38;384.30;2329.60
55016;DHT22;40919;43.236;21.590;2022-10-15T18:04:05;384.10;2329.60
55016;DHT22;40919;43.236;21.590;2022-10-15T18:06:31;384.00;2329.60
55016;DHT22;40919;43.236;21.590;2022-10-15T18:08:57;384.00;2329.60
55016;DHT22;40919;43.236;21.590;2022-10-15T18:11:26;384.00;2329.60
55016;DHT22;40919;43.236;21.590;2022-10-15T18:13:53;384.10;2329.60
55016;DHT22;40919;43.236;21.590;2022-10-15T18:16:20;384.00;2329.60
55016;DHT22;40919;43.236;21.590;2022-10-15T18:18:46;359.30;2329.60
55016;DHT22;40919;43.236;21.590;2022-10-15T18:21:17;359.30;2329.60
55016;DHT22;40919;43.236;21.590;2022-10-15T18:23:44;359.30;2329.60
55016;DHT22;40919;43.236;21.590;2022-10-15T18:26:17;359.20;2329.60
55016;DHT22;40919;43.236;21.590;2022-10-15T18:28:45;359.10;2329.60
55016;DHT22;40919;43.236;21.590;2022-10-15T18:31:11;359.20;2329.60
55016;DHT22;40919;43.236;21.590;2022-10-15T18:33:40;359.00;2329.60
55016;DHT22;40919;43.236;21.590;2022-10-15T18:38:35;359.00;2329.60
55016;DHT22;40919;43.236;21.590;2022-10-15T18:41:01;358.80;2329.60
55016;DHT22;40919;43.236;21.590;2022-10-15T18:43:27;358.90;2329.60
55016;DHT22;40919;43.236;21.590;2022-10-15T18:45:53;358.80;2329.60
55016;DHT22;40919;43.236;21.590;2022-10-15T18:48:19;358.90;2329.60
55016;DHT22;40919;43.236;21.590;2022-10-15T18:55:37;358.80;2329.60
55016;DHT22;40919;43.236;21.590;2022-10-15T18:58:03;358.80;2329.60
55016;DHT22;40919;43.236;21.590;2022-10-15T19:00:29;358.60;2329.60
55016;DHT22;40919;43.236;21.590;2022-10-15T19:12:48;358.70;2329.60
55016;DHT22;40919;43.236;21.590;2022-10-15T19:27:24;358.40;2329.60
55016;DHT22;40919;43.236;21.590;2022-10-15T19:29:51;333.50;2329.60
55016;DHT22;40919;43.236;21.590;2022-10-15T19:32:17;333.50;2329.60
55016;DHT22;40919;43.236;21.590;2022-10-15T19:34:42;333.50;2329.60
55016;DHT22;40919;43.236;21.590;2022-10-15T19:39:34;333.40;2329.60
55016;DHT22;40919;43.236;21.590;2022-10-15T19:49:20;333.20;2329.60
55016;DHT22;40919;43.236;21.590;2022-10-15T19:51:47;333.10;2329.60
55016;DHT22;40919;43.236;21.590;2022-10-15T19:54:13;333.10;2329.60
55016;DHT22;40919;43.236;21.590;2022-10-15T19:56:39;333.10;2329.60
55016;DHT22;40919;43.236;21.590;2022-10-15T19:59:05;333.00;2329.60
55016;DHT22;40919;43.236;21.590;2022-10-15T20:01:31;333.00;2329.60
55016;DHT22;40919;43.236;21.590;2022-10-15T20:03:58;333.10;2329.60
55016;DHT22;40919;43.236;21.590;2022-10-15T20:06:24;333.00;2329.60
55016;DHT22;40919;43.236;21.590;2022-10-15T20:08:50;332.80;2329.60
55016;DHT22;40919;43.236;21.590;2022-10-15T20:11:16;332.90;2329.60
55016;DHT22;40919;43.236;21.590;2022-10-15T20:48:08;307.90;2304.00
55016;DHT22;40919;43.236;21.590;2022-10-15T20:50:37;307.90;2304.00
55016;DHT22;40919;43.236;21.590;2022-10-15T20:53:03;307.70;2304.00
55016;DHT22;40919;43.236;21.590;2022-10-15T20:55:28;307.60;2304.00
55016;DHT22;40919;43.236;21.590;2022-10-15T20:57:54;307.60;2304.00
55016;DHT22;40919;43.236;21.590;2022-10-15T21:00:20;307.50;2304.00
55016;DHT22;40919;43.236;21.590;2022-10-15T21:02:46;307.30;2304.00
55016;DHT22;40919;43.236;21.590;2022-10-15T21:05:12;307.20;2304.00
55016;DHT22;40919;43.236;21.590;2022-10-15T21:07:38;282.50;2278.40
55016;DHT22;40919;43.236;21.590;2022-10-15T22:03:51;282.50;2278.40
55016;DHT22;40919;43.236;21.590;2022-10-15T22:06:19;282.40;2278.40
55016;DHT22;40919;43.236;21.590;2022-10-15T22:08:45;282.10;2278.40
55016;DHT22;40919;43.236;21.590;2022-10-15T22:11:20;281.80;2278.40
55016;DHT22;40919;43.236;21.590;2022-10-15T22:13:48;282.10;2278.40
55016;DHT22;40919;43.236;21.590;2022-10-15T22:16:15;281.90;2278.40
55016;DHT22;40919;43.236;21.590;2022-10-15T22:18:41;282.10;2278.40
55016;DHT22;40919;43.236;21.590;2022-10-15T22:21:18;282.00;2278.40
55016;DHT22;40919;43.236;21.590;2022-10-15T22:23:50;282.00;2278.40
55016;DHT22;40919;43.236;21.590;2022-10-15T22:26:17;281.90;2278.40
55016;DHT22;40919;43.236;21.590;2022-10-15T22:28:44;281.80;2278.40
55016;DHT22;40919;43.236;21.590;2022-10-15T22:31:12;281.60;2278.40
55016;DHT22;40919;43.236;21.590;2022-10-15T22:33:39;256.90;2252.80
55016;DHT22;40919;43.236;21.590;2022-10-15T22:36:09;256.90;2252.80
55016;DHT22;40919;43.236;21.590;2022-10-15T22:38:42;256.60;2252.80
55016;DHT22;40919;43.236;21.590;2022-10-15T22:41:09;256.90;2252.80
55016;DHT22;40919;43.236;21.590;2022-10-15T22:43:36;256.90;2252.80
55016;DHT22;40919;43.236;21.590;2022-10-15T22:46:03;281.60;2278.40
55016;DHT22;40919;43.236;21.590;2022-10-15T22:48:32;281.60;2278.40
55016;DHT22;40919;43.236;21.590;2022-10-15T22:50:59;281.80;2278.40
55016;DHT22;40919;43.236;21.590;2022-10-15T22:53:25;281.80;2278.40
55016;DHT22;40919;43.236;21.590;2022-10-15T22:56:02;281.90;2278.40
55016;DHT22;40919;43.236;21.590;2022-10-15T22:58:29;282.10;2278.40
55016;DHT22;40919;43.236;21.590;2022-10-15T23:00:55;282.00;2278.40
55016;DHT22;40919;43.236;21.590;2022-10-15T23:03:29;281.80;2278.40
55016;DHT22;40919;43.236;21.590;2022-10-15T23:25:34;256.60;2252.80
55016;DHT22;40919;43.236;21.590;2022-10-15T23:28:00;256.40;2252.80
55016;DHT22;40919;43.236;21.590;2022-10-15T23:30:26;256.50;2252.80
55016;DHT22;40919;43.236;21.590;2022-10-15T23:32:52;256.50;2252.80
55016;DHT22;40919;43.236;21.590;2022-10-15T23:35:17;256.60;2252.80
55016;DHT22;40919;43.236;21.590;2022-10-15T23:37:43;256.70;2252.80
55016;DHT22;40919;43.236;21.590;2022-10-15T23:40:09;256.70;2252.80
55016;DHT22;40919;43.236;21.590;2022-10-15T23:42:35;256.20;2252.80
55016;DHT22;40919;43.236;21.590;2022-10-15T23:45:01;256.20;2252.80
55016;DHT22;40919;43.236;21.590;2022-10-15T23:47:27;256.30;2252.80
55016;DHT22;40919;43.236;21.590;2022-10-15T23:49:52;256.40;2252.80
55016;DHT22;40919;43.236;21.590;2022-10-15T23:52:18;256.40;2252.80
55016;DHT22;40919;43.236;21.590;2022-10-15T23:54:44;256.40;2252.80
55016;DHT22;40919;43.236;21.590;2022-10-15T23:57:10;256.40;2252.80
55016;DHT22;40919;43.236;21.590;2022-10-15T23:59:36;256.40;2252.80
